sensor_id;sensor_type;location;lat;lon;timestamp;pressure;altitude;pressure_sealevel;temperature;humidity
72612;BME280;60655;52.182;4.474;2023-04-07T00:00:22;101542.16;;;9.19;91.53
72612;BME280;60655;52.182;4.474;2023-04-07T00:02:23;101543.59;;;9.21;90.52
72612;BME280;60655;52.182;4.474;2023-04-07T00:04:24;101553.50;;;9.34;91.11
72612;BME280;60655;52.182;4.474;2023-04-07T00:06:25;101550.56;;;9.22;91.47
72612;BME280;60655;52.182;4.474;2023-04-07T00:08:27;101548.44;;;9.39;90.58
72612;BME280;60655;52.182;4.474;2023-04-07T00:10:28;101546.63;;;9.39;90.64
72612;BME280;60655;52.182;4.474;2023-04-07T00:12:28;101542.06;;;9.33;90.57
72612;BME280;60655;52.182;4.474;2023-04-07T00:14:30;101538.50;;;9.20;90.91
72612;BME280;60655;52.182;4.474;2023-04-07T00:16:31;101535.50;;;9.29;90.76
72612;BME280;60655;52.182;4.474;2023-04-07T00:18:31;101542.00;;;9.48;90.49
72612;BME280;60655;52.182;4.474;2023-04-07T00:20:32;101538.72;;;9.46;90.12
72612;BME280;60655;52.182;4.474;2023-04-07T00:22:33;101553.56;;;9.40;90.72
72612;BME280;60655;52.182;4.474;2023-04-07T00:24:34;101559.13;;;9.45;89.69
72612;BME280;60655;52.182;4.474;2023-04-07T00:26:35;101541.50;;;9.38;89.50
72612;BME280;60655;52.182;4.474;2023-04-07T00:28:36;101545.09;;;9.30;89.81
72612;BME280;60655;52.182;4.474;2023-04-07T00:30:37;101544.16;;;9.38;89.81
72612;BME280;60655;52.182;4.474;2023-04-07T00:32:38;101551.78;;;9.26;90.07
72612;BME280;60655;52.182;4.474;2023-04-07T00:34:39;101515.19;;;9.15;90.31
72612;BME280;60655;52.182;4.474;2023-04-07T00:36:40;101552.03;;;9.31;89.76
72612;BME280;60655;52.182;4.474;2023-04-07T00:38:41;101519.22;;;9.11;90.00
72612;BME280;60655;52.182;4.474;2023-04-07T00:40:42;101556.44;;;9.24;89.85
72612;BME280;60655;52.182;4.474;2023-04-07T00:42:43;101553.69;;;9.32;90.09
72612;BME280;60655;52.182;4.474;2023-04-07T00:44:44;101515.56;;;9.12;89.89
72612;BME280;60655;52.182;4.474;2023-04-07T00:46:46;101553.31;;;9.35;89.85
72612;BME280;60655;52.182;4.474;2023-04-07T00:48:47;101550.22;;;9.32;89.70
72612;BME280;60655;52.182;4.474;2023-04-07T00:50:48;101544.03;;;9.25;89.86
72612;BME280;60655;52.182;4.474;2023-04-07T00:52:49;101555.66;;;9.24;90.31
72612;BME280;60655;52.182;4.474;2023-04-07T00:54:50;101556.59;;;9.37;90.17
72612;BME280;60655;52.182;4.474;2023-04-07T00:56:53;101556.72;;;9.51;89.95
72612;BME280;60655;52.182;4.474;2023-04-07T00:58:54;101567.91;;;9.46;89.89
72612;BME280;60655;52.182;4.474;2023-04-07T01:01:08;101566.44;;;9.43;89.65
72612;BME280;60655;52.182;4.474;2023-04-07T01:03:19;101571.63;;;9.52;89.53
72612;BME280;60655;52.182;4.474;2023-04-07T01:05:31;101564.34;;;9.39;89.78
72612;BME280;60655;52.182;4.474;2023-04-07T01:07:55;101558.97;;;9.54;90.02
72612;BME280;60655;52.182;4.474;2023-04-07T01:10:01;101560.94;;;9.45;89.60
72612;BME280;60655;52.182;4.474;2023-04-07T01:12:35;101557.78;;;9.35;90.49
72612;BME280;60655;52.182;4.474;2023-04-07T01:14:46;101559.38;;;9.51;90.58
72612;BME280;60655;52.182;4.474;2023-04-07T01:16:51;101562.41;;;9.47;90.29
72612;BME280;60655;52.182;4.474;2023-04-07T01:19:00;101554.44;;;9.47;90.52
72612;BME280;60655;52.182;4.474;2023-04-07T01:21:13;101571.41;;;9.53;90.38
72612;BME280;60655;52.182;4.474;2023-04-07T01:23:22;101556.72;;;9.29;89.96
72612;BME280;60655;52.182;4.474;2023-04-07T01:26:11;101563.34;;;9.40;90.37
72612;BME280;60655;52.182;4.474;2023-04-07T01:29:03;101561.00;;;9.30;90.69
72612;BME280;60655;52.182;4.474;2023-04-07T01:31:11;101567.72;;;9.47;90.10
72612;BME280;60655;52.182;4.474;2023-04-07T01:33:13;101563.41;;;9.46;90.37
72612;BME280;60655;52.182;4.474;2023-04-07T01:35:16;101567.56;;;9.34;90.70
72612;BME280;60655;52.182;4.474;2023-04-07T01:37:19;101567.56;;;9.34;89.60
72612;BME280;60655;52.182;4.474;2023-04-07T01:39:21;101556.59;;;9.37;90.64
72612;BME280;60655;52.182;4.474;2023-04-07T01:41:22;101561.19;;;9.50;90.85
72612;BME280;60655;52.182;4.474;2023-04-07T01:43:24;101547.25;;;9.41;89.85
72612;BME280;60655;52.182;4.474;2023-04-07T01:45:28;101563.41;;;9.46;90.01
72612;BME280;60655;52.182;4.474;2023-04-07T01:47:30;101558.16;;;9.32;89.91
72612;BME280;60655;52.182;4.474;2023-04-07T01:49:34;101556.63;;;9.01;90.54
72612;BME280;60655;52.182;4.474;2023-04-07T01:51:36;101538.72;;;9.03;90.98
72612;BME280;60655;52.182;4.474;2023-04-07T01:53:37;101565.19;;;9.18;90.39
72612;BME280;60655;52.182;4.474;2023-04-07T01:55:41;101530.28;;;8.93;90.26
72612;BME280;60655;52.182;4.474;2023-04-07T01:57:43;101552.38;;;9.22;89.96
72612;BME280;60655;52.182;4.474;2023-04-07T01:59:44;101559.25;;;9.16;90.58
72612;BME280;60655;52.182;4.474;2023-04-07T02:01:45;101561.63;;;9.11;90.67
72612;BME280;60655;52.182;4.474;2023-04-07T02:03:48;101561.34;;;9.21;90.21
72612;BME280;60655;52.182;4.474;2023-04-07T02:05:54;101553.06;;;9.09;90.13
72612;BME280;60655;52.182;4.474;2023-04-07T02:08:00;101557.59;;;9.15;90.58
72612;BME280;60655;52.182;4.474;2023-04-07T02:10:05;101556.06;;;9.06;89.85
72612;BME280;60655;52.182;4.474;2023-04-07T02:12:12;101561.31;;;8.99;90.79
72612;BME280;60655;52.182;4.474;2023-04-07T02:14:14;101561.00;;;9.09;90.38
72612;BME280;60655;52.182;4.474;2023-04-07T02:16:18;101564.75;;;9.14;90.46
72612;BME280;60655;52.182;4.474;2023-04-07T02:18:20;101557.34;;;9.31;90.26
72612;BME280;60655;52.182;4.474;2023-04-07T02:20:22;101571.22;;;9.33;89.62
72612;BME280;60655;52.182;4.474;2023-04-07T02:22:24;101564.47;;;9.31;89.92
72612;BME280;60655;52.182;4.474;2023-04-07T02:24:25;101575.16;;;9.16;90.54
72612;BME280;60655;52.182;4.474;2023-04-07T02:26:26;101567.06;;;9.03;90.54
72612;BME280;60655;52.182;4.474;2023-04-07T02:28:27;101542.53;;;8.94;91.14
72612;BME280;60655;52.182;4.474;2023-04-07T02:30:29;101567.66;;;9.20;90.78
72612;BME280;60655;52.182;4.474;2023-04-07T02:32:30;101562.91;;;9.15;91.04
72612;BME280;60655;52.182;4.474;2023-04-07T02:34:31;101574.16;;;9.17;90.55
72612;BME280;60655;52.182;4.474;2023-04-07T02:36:32;101576.16;;;9.15;90.36
72612;BME280;60655;52.182;4.474;2023-04-07T02:38:33;101540.81;;;8.72;91.28
72612;BME280;60655;52.182;4.474;2023-04-07T02:40:34;101577.78;;;8.95;92.07
72612;BME280;60655;52.182;4.474;2023-04-07T02:42:36;101576.81;;;8.81;92.76
72612;BME280;60655;52.182;4.474;2023-04-07T02:44:37;101568.31;;;8.86;93.38
72612;BME280;60655;52.182;4.474;2023-04-07T02:46:38;101573.22;;;8.89;93.30
72612;BME280;60655;52.182;4.474;2023-04-07T02:48:39;101563.91;;;8.93;92.71
72612;BME280;60655;52.182;4.474;2023-04-07T02:50:40;101570.94;;;8.86;93.27
72612;BME280;60655;52.182;4.474;2023-04-07T02:52:41;101570.31;;;8.84;93.12
72612;BME280;60655;52.182;4.474;2023-04-07T02:54:42;101565.72;;;8.92;92.88
72612;BME280;60655;52.182;4.474;2023-04-07T02:56:43;101572.72;;;9.00;93.56
72612;BME280;60655;52.182;4.474;2023-04-07T02:58:44;101583.78;;;9.03;93.31
72612;BME280;60655;52.182;4.474;2023-04-07T03:00:47;101565.22;;;9.03;92.33
72612;BME280;60655;52.182;4.474;2023-04-07T03:02:48;101577.00;;;9.01;93.14
72612;BME280;60655;52.182;4.474;2023-04-07T03:04:50;101571.97;;;9.27;92.91
72612;BME280;60655;52.182;4.474;2023-04-07T03:06:50;101575.38;;;9.00;92.49
72612;BME280;60655;52.182;4.474;2023-04-07T03:08:51;101578.78;;;8.94;93.43
72612;BME280;60655;52.182;4.474;2023-04-07T03:10:52;101582.94;;;9.03;93.06
72612;BME280;60655;52.182;4.474;2023-04-07T03:12:54;101572.50;;;8.95;93.04
72612;BME280;60655;52.182;4.474;2023-04-07T03:14:55;101584.38;;;9.20;92.47
72612;BME280;60655;52.182;4.474;2023-04-07T03:16:56;101557.91;;;9.05;91.57
72612;BME280;60655;52.182;4.474;2023-04-07T03:18:57;101584.00;;;9.23;91.85
72612;BME280;60655;52.182;4.474;2023-04-07T03:20:58;101588.22;;;9.18;92.09
72612;BME280;60655;52.182;4.474;2023-04-07T03:22:59;101594.34;;;9.18;91.54
72612;BME280;60655;52.182;4.474;2023-04-07T03:25:00;101593.75;;;9.01;91.88
72612;BME280;60655;52.182;4.474;2023-04-07T03:27:01;101588.75;;;8.92;92.43
72612;BME280;60655;52.182;4.474;2023-04-07T03:29:03;101595.63;;;8.86;92.48
72612;BME280;60655;52.182;4.474;2023-04-07T03:31:04;101596.25;;;8.88;93.44
72612;BME280;60655;52.182;4.474;2023-04-07T03:33:04;101589.78;;;8.76;92.39
72612;BME280;60655;52.182;4.474;2023-04-07T03:35:06;101589.97;;;8.74;92.99
72612;BME280;60655;52.182;4.474;2023-04-07T03:37:07;101580.38;;;8.73;93.48
72612;BME280;60655;52.182;4.474;2023-04-07T03:39:08;101590.22;;;8.94;92.17
72612;BME280;60655;52.182;4.474;2023-04-07T03:41:09;101586.47;;;8.89;91.21
72612;BME280;60655;52.182;4.474;2023-04-07T03:43:10;101592.97;;;8.86;90.46
72612;BME280;60655;52.182;4.474;2023-04-07T03:45:13;101574.25;;;8.73;91.11
72612;BME280;60655;52.182;4.474;2023-04-07T03:47:15;101579.81;;;8.78;90.11
72612;BME280;60655;52.182;4.474;2023-04-07T03:49:16;101593.69;;;8.95;90.71
72612;BME280;60655;52.182;4.474;2023-04-07T03:51:17;101581.09;;;8.82;90.51
72612;BME280;60655;52.182;4.474;2023-04-07T03:53:18;101589.44;;;9.00;89.77
72612;BME280;60655;52.182;4.474;2023-04-07T03:55:19;101588.38;;;8.95;89.82
72612;BME280;60655;52.182;4.474;2023-04-07T03:57:20;101595.56;;;9.01;90.97
72612;BME280;60655;52.182;4.474;2023-04-07T03:59:22;101589.81;;;8.97;90.83
72612;BME280;60655;52.182;4.474;2023-04-07T04:01:23;101593.38;;;9.04;90.78
72612;BME280;60655;52.182;4.474;2023-04-07T04:03:23;101586.25;;;9.05;91.22
72612;BME280;60655;52.182;4.474;2023-04-07T04:05:24;101596.34;;;8.95;90.54
72612;BME280;60655;52.182;4.474;2023-04-07T04:07:25;101593.47;;;8.96;90.98
72612;BME280;60655;52.182;4.474;2023-04-07T04:09:26;101576.16;;;8.79;90.80
72612;BME280;60655;52.182;4.474;2023-04-07T04:11:27;101594.09;;;8.98;91.35
72612;BME280;60655;52.182;4.474;2023-04-07T04:13:28;101599.22;;;9.00;90.94
72612;BME280;60655;52.182;4.474;2023-04-07T04:15:29;101598.47;;;9.06;90.78
72612;BME280;60655;52.182;4.474;2023-04-07T04:17:30;101592.88;;;8.94;90.42
72612;BME280;60655;52.182;4.474;2023-04-07T04:19:31;101601.28;;;9.19;91.14
72612;BME280;60655;52.182;4.474;2023-04-07T04:21:32;101603.88;;;9.12;90.51
72612;BME280;60655;52.182;4.474;2023-04-07T04:23:33;101608.72;;;9.09;90.48
72612;BME280;60655;52.182;4.474;2023-04-07T04:25:54;101609.53;;;9.09;90.00
72612;BME280;60655;52.182;4.474;2023-04-07T04:27:55;101612.66;;;8.98;90.14
72612;BME280;60655;52.182;4.474;2023-04-07T04:29:56;101616.47;;;9.10;90.01
72612;BME280;60655;52.182;4.474;2023-04-07T04:31:56;101601.13;;;9.06;89.86
72612;BME280;60655;52.182;4.474;2023-04-07T04:33:57;101613.19;;;9.08;89.40
72612;BME280;60655;52.182;4.474;2023-04-07T04:35:58;101613.75;;;9.04;90.64
72612;BME280;60655;52.182;4.474;2023-04-07T04:37:59;101611.81;;;9.12;90.84
72612;BME280;60655;52.182;4.474;2023-04-07T04:40:00;101618.31;;;9.10;89.94
72612;BME280;60655;52.182;4.474;2023-04-07T04:42:04;101615.91;;;8.94;89.17
72612;BME280;60655;52.182;4.474;2023-04-07T04:44:05;101622.03;;;9.16;88.71
72612;BME280;60655;52.182;4.474;2023-04-07T04:46:06;101615.03;;;9.08;88.02
72612;BME280;60655;52.182;4.474;2023-04-07T04:48:07;101616.41;;;9.04;87.92
72612;BME280;60655;52.182;4.474;2023-04-07T04:50:09;101618.50;;;9.08;87.15
72612;BME280;60655;52.182;4.474;2023-04-07T04:52:10;101630.47;;;9.04;86.12
72612;BME280;60655;52.182;4.474;2023-04-07T04:54:11;101623.25;;;9.13;86.18
72612;BME280;60655;52.182;4.474;2023-04-07T04:56:12;101629.53;;;9.12;85.74
72612;BME280;60655;52.182;4.474;2023-04-07T04:58:13;101636.13;;;9.16;86.30
72612;BME280;60655;52.182;4.474;2023-04-07T05:00:14;101632.31;;;9.04;85.84
72612;BME280;60655;52.182;4.474;2023-04-07T05:02:15;101635.47;;;9.14;85.55
72612;BME280;60655;52.182;4.474;2023-04-07T05:04:16;101640.25;;;9.04;85.47
72612;BME280;60655;52.182;4.474;2023-04-07T05:06:17;101627.50;;;8.93;86.20
72612;BME280;60655;52.182;4.474;2023-04-07T05:08:18;101628.88;;;8.89;86.54
72612;BME280;60655;52.182;4.474;2023-04-07T05:10:19;101638.84;;;8.87;86.49
72612;BME280;60655;52.182;4.474;2023-04-07T05:12:20;101630.53;;;8.90;85.93
72612;BME280;60655;52.182;4.474;2023-04-07T05:14:21;101634.00;;;8.90;85.69
72612;BME280;60655;52.182;4.474;2023-04-07T05:16:22;101636.88;;;8.95;85.29
72612;BME280;60655;52.182;4.474;2023-04-07T05:18:23;101637.06;;;9.08;84.90
72612;BME280;60655;52.182;4.474;2023-04-07T05:20:24;101634.63;;;8.92;85.47
72612;BME280;60655;52.182;4.474;2023-04-07T05:22:24;101635.31;;;9.01;85.54
72612;BME280;60655;52.182;4.474;2023-04-07T05:24:27;101639.75;;;8.94;85.21
72612;BME280;60655;52.182;4.474;2023-04-07T05:26:28;101615.91;;;8.79;85.72
72612;BME280;60655;52.182;4.474;2023-04-07T05:28:32;101615.53;;;8.67;86.83
72612;BME280;60655;52.182;4.474;2023-04-07T05:30:32;101642.19;;;8.95;86.33
72612;BME280;60655;52.182;4.474;2023-04-07T05:32:33;101645.88;;;8.94;85.34
72612;BME280;60655;52.182;4.474;2023-04-07T05:34:35;101654.25;;;8.98;86.23
72612;BME280;60655;52.182;4.474;2023-04-07T05:36:36;101646.38;;;9.04;86.85
72612;BME280;60655;52.182;4.474;2023-04-07T05:38:37;101659.53;;;8.98;84.34
72612;BME280;60655;52.182;4.474;2023-04-07T05:40:39;101652.78;;;9.10;84.46
72612;BME280;60655;52.182;4.474;2023-04-07T05:42:40;101647.94;;;8.99;84.85
72612;BME280;60655;52.182;4.474;2023-04-07T05:44:41;101648.06;;;8.91;85.38
72612;BME280;60655;52.182;4.474;2023-04-07T05:46:42;101659.03;;;8.88;85.86
72612;BME280;60655;52.182;4.474;2023-04-07T05:48:43;101655.44;;;8.95;85.94
72612;BME280;60655;52.182;4.474;2023-04-07T05:50:44;101630.78;;;8.95;86.28
72612;BME280;60655;52.182;4.474;2023-04-07T05:52:45;101658.34;;;9.15;86.23
72612;BME280;60655;52.182;4.474;2023-04-07T05:54:45;101647.47;;;9.10;86.84
72612;BME280;60655;52.182;4.474;2023-04-07T05:56:46;101662.00;;;9.14;86.16
72612;BME280;60655;52.182;4.474;2023-04-07T05:58:47;101661.72;;;9.24;86.25
72612;BME280;60655;52.182;4.474;2023-04-07T06:00:49;101668.25;;;9.28;86.72
72612;BME280;60655;52.182;4.474;2023-04-07T06:02:51;101646.88;;;8.93;87.56
72612;BME280;60655;52.182;4.474;2023-04-07T06:04:52;101671.88;;;9.05;87.71
72612;BME280;60655;52.182;4.474;2023-04-07T06:06:53;101676.63;;;9.10;87.83
72612;BME280;60655;52.182;4.474;2023-04-07T06:08:55;101668.75;;;9.02;87.85
72612;BME280;60655;52.182;4.474;2023-04-07T06:10:55;101681.88;;;9.25;87.57
72612;BME280;60655;52.182;4.474;2023-04-07T06:12:56;101679.22;;;9.25;87.11
72612;BME280;60655;52.182;4.474;2023-04-07T06:14:57;101675.25;;;9.14;87.11
72612;BME280;60655;52.182;4.474;2023-04-07T06:16:58;101693.06;;;9.20;88.04
72612;BME280;60655;52.182;4.474;2023-04-07T06:18:59;101691.97;;;9.14;87.74
72612;BME280;60655;52.182;4.474;2023-04-07T06:21:00;101683.75;;;9.09;87.50
72612;BME280;60655;52.182;4.474;2023-04-07T06:23:03;101681.38;;;9.14;87.03
72612;BME280;60655;52.182;4.474;2023-04-07T06:25:04;101691.69;;;9.09;87.58
72612;BME280;60655;52.182;4.474;2023-04-07T06:27:05;101693.81;;;9.14;86.67
72612;BME280;60655;52.182;4.474;2023-04-07T06:29:06;101705.16;;;8.93;85.53
72612;BME280;60655;52.182;4.474;2023-04-07T06:31:07;101706.41;;;8.68;85.70
72612;BME280;60655;52.182;4.474;2023-04-07T06:33:09;101707.88;;;8.70;84.81
72612;BME280;60655;52.182;4.474;2023-04-07T06:35:10;101691.09;;;8.63;84.49
72612;BME280;60655;52.182;4.474;2023-04-07T06:37:11;101707.72;;;8.87;84.74
72612;BME280;60655;52.182;4.474;2023-04-07T06:39:14;101718.84;;;8.97;85.55
72612;BME280;60655;52.182;4.474;2023-04-07T06:41:15;101718.84;;;9.11;83.83
72612;BME280;60655;52.182;4.474;2023-04-07T06:43:19;101725.38;;;8.94;82.91
72612;BME280;60655;52.182;4.474;2023-04-07T06:45:20;101720.31;;;8.99;82.51
72612;BME280;60655;52.182;4.474;2023-04-07T06:47:21;101715.38;;;8.96;82.70
72612;BME280;60655;52.182;4.474;2023-04-07T06:49:22;101720.25;;;8.93;83.19
72612;BME280;60655;52.182;4.474;2023-04-07T06:51:22;101722.59;;;9.02;83.34
72612;BME280;60655;52.182;4.474;2023-04-07T06:53:23;101717.66;;;8.99;82.85
72612;BME280;60655;52.182;4.474;2023-04-07T06:55:24;101724.69;;;9.07;83.69
72612;BME280;60655;52.182;4.474;2023-04-07T06:57:26;101727.91;;;9.02;82.97
72612;BME280;60655;52.182;4.474;2023-04-07T06:59:27;101724.25;;;9.03;83.52
72612;BME280;60655;52.182;4.474;2023-04-07T07:01:28;101727.16;;;9.08;83.96
72612;BME280;60655;52.182;4.474;2023-04-07T07:03:29;101727.72;;;9.19;83.87
72612;BME280;60655;52.182;4.474;2023-04-07T07:05:31;101727.06;;;9.17;84.02
72612;BME280;60655;52.182;4.474;2023-04-07T07:07:32;101726.94;;;9.25;83.21
72612;BME280;60655;52.182;4.474;2023-04-07T07:09:32;101722.41;;;9.19;82.99
72612;BME280;60655;52.182;4.474;2023-04-07T07:11:33;101734.28;;;9.08;83.38
72612;BME280;60655;52.182;4.474;2023-04-07T07:13:34;101740.22;;;9.10;84.36
72612;BME280;60655;52.182;4.474;2023-04-07T07:15:35;101734.84;;;9.18;84.73
72612;BME280;60655;52.182;4.474;2023-04-07T07:17:36;101732.59;;;9.36;84.68
72612;BME280;60655;52.182;4.474;2023-04-07T07:19:37;101748.56;;;9.22;84.21
72612;BME280;60655;52.182;4.474;2023-04-07T07:21:38;101739.69;;;9.14;83.79
72612;BME280;60655;52.182;4.474;2023-04-07T07:23:40;101743.34;;;8.84;85.71
72612;BME280;60655;52.182;4.474;2023-04-07T07:25:41;101739.63;;;8.93;84.58
72612;BME280;60655;52.182;4.474;2023-04-07T07:27:42;101726.44;;;8.85;84.42
72612;BME280;60655;52.182;4.474;2023-04-07T07:29:43;101749.00;;;8.81;83.58
72612;BME280;60655;52.182;4.474;2023-04-07T07:31:45;101743.06;;;8.79;85.39
72612;BME280;60655;52.182;4.474;2023-04-07T07:33:46;101751.03;;;8.94;84.05
72612;BME280;60655;52.182;4.474;2023-04-07T07:35:49;101755.69;;;8.92;82.81
72612;BME280;60655;52.182;4.474;2023-04-07T07:37:50;101749.09;;;9.02;82.33
72612;BME280;60655;52.182;4.474;2023-04-07T07:39:51;101759.06;;;9.00;82.47
72612;BME280;60655;52.182;4.474;2023-04-07T07:41:52;101762.72;;;8.85;81.99
72612;BME280;60655;52.182;4.474;2023-04-07T07:43:55;101762.63;;;9.07;81.87
72612;BME280;60655;52.182;4.474;2023-04-07T07:45:56;101765.66;;;8.90;82.60
72612;BME280;60655;52.182;4.474;2023-04-07T07:47:57;101755.31;;;9.09;82.45
72612;BME280;60655;52.182;4.474;2023-04-07T07:49:58;101766.81;;;9.31;83.13
72612;BME280;60655;52.182;4.474;2023-04-07T07:51:59;101758.41;;;9.42;81.19
72612;BME280;60655;52.182;4.474;2023-04-07T07:54:00;101769.22;;;9.11;81.71
72612;BME280;60655;52.182;4.474;2023-04-07T07:56:01;101771.00;;;9.26;82.16
72612;BME280;60655;52.182;4.474;2023-04-07T07:58:02;101740.66;;;9.28;81.11
72612;BME280;60655;52.182;4.474;2023-04-07T08:00:02;101771.16;;;9.54;82.86
72612;BME280;60655;52.182;4.474;2023-04-07T08:02:04;101772.03;;;9.39;80.94
72612;BME280;60655;52.182;4.474;2023-04-07T08:04:05;101773.31;;;9.29;81.50
72612;BME280;60655;52.182;4.474;2023-04-07T08:06:05;101772.28;;;9.30;82.19
72612;BME280;60655;52.182;4.474;2023-04-07T08:08:08;101774.16;;;9.14;82.39
72612;BME280;60655;52.182;4.474;2023-04-07T08:10:10;101792.53;;;9.16;82.07
72612;BME280;60655;52.182;4.474;2023-04-07T08:12:11;101787.75;;;9.11;82.66
72612;BME280;60655;52.182;4.474;2023-04-07T08:14:11;101789.41;;;9.12;83.67
72612;BME280;60655;52.182;4.474;2023-04-07T08:16:12;101789.56;;;9.40;82.94
72612;BME280;60655;52.182;4.474;2023-04-07T08:18:13;101779.78;;;9.41;81.88
72612;BME280;60655;52.182;4.474;2023-04-07T08:20:14;101787.78;;;9.62;82.24
72612;BME280;60655;52.182;4.474;2023-04-07T08:22:16;101788.47;;;9.50;82.06
72612;BME280;60655;52.182;4.474;2023-04-07T08:24:19;101793.69;;;9.43;81.96
72612;BME280;60655;52.182;4.474;2023-04-07T08:26:20;101798.72;;;9.38;82.51
72612;BME280;60655;52.182;4.474;2023-04-07T08:28:23;101806.13;;;9.42;82.73
72612;BME280;60655;52.182;4.474;2023-04-07T08:30:24;101807.22;;;9.33;82.83
72612;BME280;60655;52.182;4.474;2023-04-07T08:32:33;101804.31;;;9.43;82.12
72612;BME280;60655;52.182;4.474;2023-04-07T08:34:34;101810.34;;;9.37;82.34
72612;BME280;60655;52.182;4.474;2023-04-07T08:36:35;101800.91;;;9.49;83.62
72612;BME280;60655;52.182;4.474;2023-04-07T08:38:36;101808.41;;;9.45;82.08
72612;BME280;60655;52.182;4.474;2023-04-07T08:40:37;101801.38;;;9.53;80.94
72612;BME280;60655;52.182;4.474;2023-04-07T08:42:40;101814.25;;;9.41;81.07
72612;BME280;60655;52.182;4.474;2023-04-07T08:44:43;101809.88;;;9.48;81.38
72612;BME280;60655;52.182;4.474;2023-04-07T08:46:45;101815.53;;;9.45;81.66
72612;BME280;60655;52.182;4.474;2023-04-07T08:48:49;101810.50;;;9.35;82.12
72612;BME280;60655;52.182;4.474;2023-04-07T08:50:51;101806.03;;;9.36;82.43
72612;BME280;60655;52.182;4.474;2023-04-07T08:53:12;101822.13;;;9.34;82.67
72612;BME280;60655;52.182;4.474;2023-04-07T08:55:14;101822.69;;;9.44;82.21
72612;BME280;60655;52.182;4.474;2023-04-07T08:57:16;101827.50;;;9.56;81.82
72612;BME280;60655;52.182;4.474;2023-04-07T08:59:17;101813.16;;;9.50;82.00
72612;BME280;60655;52.182;4.474;2023-04-07T09:01:19;101818.84;;;9.47;82.10
72612;BME280;60655;52.182;4.474;2023-04-07T09:03:22;101823.13;;;9.48;81.37
72612;BME280;60655;52.182;4.474;2023-04-07T09:05:23;101827.63;;;9.47;81.72
72612;BME280;60655;52.182;4.474;2023-04-07T09:07:24;101813.63;;;9.39;81.53
72612;BME280;60655;52.182;4.474;2023-04-07T09:09:25;101829.50;;;9.68;81.22
72612;BME280;60655;52.182;4.474;2023-04-07T09:11:27;101832.72;;;9.64;81.40
72612;BME280;60655;52.182;4.474;2023-04-07T09:13:28;101829.25;;;9.48;81.90
72612;BME280;60655;52.182;4.474;2023-04-07T09:15:31;101809.06;;;9.33;81.80
72612;BME280;60655;52.182;4.474;2023-04-07T09:17:32;101828.50;;;9.69;81.45
72612;BME280;60655;52.182;4.474;2023-04-07T09:19:33;101809.16;;;9.39;82.38
72612;BME280;60655;52.182;4.474;2023-04-07T09:21:48;101818.75;;;9.40;82.25
72612;BME280;60655;52.182;4.474;2023-04-07T09:23:49;101844.91;;;9.43;83.07
72612;BME280;60655;52.182;4.474;2023-04-07T09:25:50;101828.63;;;9.32;83.83
72612;BME280;60655;52.182;4.474;2023-04-07T09:27:59;101835.41;;;9.49;83.36
72612;BME280;60655;52.182;4.474;2023-04-07T09:30:10;101835.91;;;9.74;82.93
72612;BME280;60655;52.182;4.474;2023-04-07T09:32:35;101840.47;;;9.80;82.23
72612;BME280;60655;52.182;4.474;2023-04-07T09:34:40;101825.75;;;9.63;83.48
72612;BME280;60655;52.182;4.474;2023-04-07T09:36:41;101836.84;;;9.52;84.18
72612;BME280;60655;52.182;4.474;2023-04-07T09:38:43;101831.88;;;9.63;83.61
72612;BME280;60655;52.182;4.474;2023-04-07T09:40:44;101836.56;;;9.61;82.78
72612;BME280;60655;52.182;4.474;2023-04-07T09:42:45;101838.03;;;9.49;83.38
72612;BME280;60655;52.182;4.474;2023-04-07T09:44:47;101841.84;;;9.61;83.11
72612;BME280;60655;52.182;4.474;2023-04-07T09:46:53;101844.41;;;9.55;83.65
72612;BME280;60655;52.182;4.474;2023-04-07T09:49:03;101847.34;;;9.60;84.21
72612;BME280;60655;52.182;4.474;2023-04-07T09:51:09;101839.28;;;9.68;84.05
72612;BME280;60655;52.182;4.474;2023-04-07T09:53:11;101846.16;;;9.62;84.70
72612;BME280;60655;52.182;4.474;2023-04-07T09:55:12;101838.66;;;9.66;84.44
72612;BME280;60655;52.182;4.474;2023-04-07T09:57:14;101848.16;;;9.75;83.97
72612;BME280;60655;52.182;4.474;2023-04-07T09:59:17;101845.69;;;9.59;84.47
72612;BME280;60655;52.182;4.474;2023-04-07T10:01:20;101840.47;;;9.80;83.49
72612;BME280;60655;52.182;4.474;2023-04-07T10:03:21;101856.75;;;9.77;82.88
72612;BME280;60655;52.182;4.474;2023-04-07T10:05:22;101855.03;;;9.55;83.53
72612;BME280;60655;52.182;4.474;2023-04-07T10:07:24;101849.72;;;9.55;84.91
72612;BME280;60655;52.182;4.474;2023-04-07T10:09:26;101861.44;;;9.60;84.81
72612;BME280;60655;52.182;4.474;2023-04-07T10:11:27;101861.91;;;9.64;84.72
72612;BME280;60655;52.182;4.474;2023-04-07T10:13:30;101852.56;;;9.53;85.15
72612;BME280;60655;52.182;4.474;2023-04-07T10:15:32;101862.09;;;9.47;84.10
72612;BME280;60655;52.182;4.474;2023-04-07T10:17:34;101855.66;;;9.71;84.51
72612;BME280;60655;52.182;4.474;2023-04-07T10:19:36;101868.66;;;9.66;83.68
72612;BME280;60655;52.182;4.474;2023-04-07T10:21:40;101861.72;;;9.65;83.83
72612;BME280;60655;52.182;4.474;2023-04-07T10:23:53;101864.81;;;9.69;83.62
72612;BME280;60655;52.182;4.474;2023-04-07T10:25:57;101861.72;;;9.65;83.29
72612;BME280;60655;52.182;4.474;2023-04-07T10:28:04;101856.44;;;9.51;83.60
72612;BME280;60655;52.182;4.474;2023-04-07T10:30:12;101861.56;;;9.52;83.97
72612;BME280;60655;52.182;4.474;2023-04-07T10:32:14;101875.38;;;9.47;83.24
72612;BME280;60655;52.182;4.474;2023-04-07T10:34:15;101878.19;;;9.46;83.20
72612;BME280;60655;52.182;4.474;2023-04-07T10:36:17;101876.34;;;9.32;84.78
72612;BME280;60655;52.182;4.474;2023-04-07T10:38:20;101886.50;;;9.28;84.60
72612;BME280;60655;52.182;4.474;2023-04-07T10:44:43;101882.56;;;9.39;84.74
72612;BME280;60655;52.182;4.474;2023-04-07T10:49:09;101878.81;;;9.63;83.87
72612;BME280;60655;52.182;4.474;2023-04-07T10:51:12;101871.78;;;9.55;84.17
72612;BME280;60655;52.182;4.474;2023-04-07T10:53:15;101874.59;;;9.54;83.98
72612;BME280;60655;52.182;4.474;2023-04-07T10:57:33;101886.34;;;9.44;84.15